sensor_id;sensor_type;location;lat;lon;timestamp;pressure;altitude;pressure_sealevel;temperature;humidity
72903;BME280;61047;43.282;28.014;2024-02-21T00:02:03;99718.56;;;8.05;58.34
72903;BME280;61047;43.282;28.014;2024-02-21T00:04:28;99720.38;;;8.04;58.43
72903;BME280;61047;43.282;28.014;2024-02-21T00:06:54;99712.13;;;7.98;58.25
72903;BME280;61047;43.282;28.014;2024-02-21T00:09:19;99712.47;;;7.93;58.08
72903;BME280;61047;43.282;28.014;2024-02-21T00:11:45;99715.34;;;7.90;58.30
72903;BME280;61047;43.282;28.014;2024-02-21T00:14:11;99710.16;;;7.88;58.79
72903;BME280;61047;43.282;28.014;2024-02-21T00:16:37;99710.75;;;7.92;58.47
72903;BME280;61047;43.282;28.014;2024-02-21T00:19:03;99712.06;;;7.86;57.96
72903;BME280;61047;43.282;28.014;2024-02-21T00:21:29;99704.28;;;7.85;58.29
72903;BME280;61047;43.282;28.014;2024-02-21T00:23:54;99706.69;;;7.88;57.82
72903;BME280;61047;43.282;28.014;2024-02-21T00:26:20;99703.22;;;7.87;57.98
72903;BME280;61047;43.282;28.014;2024-02-21T00:28:46;99702.25;;;7.88;57.71
72903;BME280;61047;43.282;28.014;2024-02-21T00:31:12;99692.53;;;7.89;57.90
72903;BME280;61047;43.282;28.014;2024-02-21T00:33:37;99700.34;;;7.91;57.75
72903;BME280;61047;43.282;28.014;2024-02-21T00:36:03;99704.66;;;7.92;57.88
72903;BME280;61047;43.282;28.014;2024-02-21T00:38:29;99707.03;;;7.95;58.73
72903;BME280;61047;43.282;28.014;2024-02-21T00:40:54;99699.38;;;8.03;58.58
72903;BME280;61047;43.282;28.014;2024-02-21T00:43:20;99699.16;;;8.06;58.38
72903;BME280;61047;43.282;28.014;2024-02-21T00:45:49;99691.94;;;8.08;58.38
72903;BME280;61047;43.282;28.014;2024-02-21T00:48:14;99693.91;;;8.06;58.51
72903;BME280;61047;43.282;28.014;2024-02-21T00:50:40;99689.06;;;8.00;58.55
72903;BME280;61047;43.282;28.014;2024-02-21T00:53:06;99691.13;;;7.96;58.08
72903;BME280;61047;43.282;28.014;2024-02-21T00:55:31;99694.81;;;7.94;58.50
72903;BME280;61047;43.282;28.014;2024-02-21T00:57:57;99694.09;;;7.92;58.54
72903;BME280;61047;43.282;28.014;2024-02-21T01:00:22;99691.34;;;7.93;58.34
72903;BME280;61047;43.282;28.014;2024-02-21T01:02:48;99682.13;;;7.87;58.32
72903;BME280;61047;43.282;28.014;2024-02-21T01:05:14;99692.88;;;7.84;58.08
72903;BME280;61047;43.282;28.014;2024-02-21T01:07:39;99685.94;;;7.83;58.07
72903;BME280;61047;43.282;28.014;2024-02-21T01:10:05;99680.66;;;7.83;57.99
72903;BME280;61047;43.282;28.014;2024-02-21T01:12:31;99683.28;;;7.83;58.18
72903;BME280;61047;43.282;28.014;2024-02-21T01:14:58;99684.13;;;7.84;57.77
72903;BME280;61047;43.282;28.014;2024-02-21T01:17:23;99682.31;;;7.84;57.80
72903;BME280;61047;43.282;28.014;2024-02-21T01:19:49;99683.19;;;7.85;57.84
72903;BME280;61047;43.282;28.014;2024-02-21T01:22:15;99679.69;;;7.84;58.35
72903;BME280;61047;43.282;28.014;2024-02-21T01:24:41;99683.06;;;7.86;58.92
72903;BME280;61047;43.282;28.014;2024-02-21T01:27:07;99684.63;;;7.89;58.86
72903;BME280;61047;43.282;28.014;2024-02-21T01:29:32;99682.59;;;7.93;58.40
72903;BME280;61047;43.282;28.014;2024-02-21T01:31:58;99680.81;;;7.93;58.88
72903;BME280;61047;43.282;28.014;2024-02-21T01:34:23;99679.00;;;7.94;58.75
72903;BME280;61047;43.282;28.014;2024-02-21T01:36:49;99678.28;;;7.92;58.59
72903;BME280;61047;43.282;28.014;2024-02-21T01:39:15;99682.94;;;7.88;58.32
72903;BME280;61047;43.282;28.014;2024-02-21T01:41:40;99674.22;;;7.87;59.01
72903;BME280;61047;43.282;28.014;2024-02-21T01:44:06;99672.41;;;7.88;58.79
72903;BME280;61047;43.282;28.014;2024-02-21T01:46:31;99674.78;;;7.80;58.34
72903;BME280;61047;43.282;28.014;2024-02-21T01:48:57;99670.94;;;7.73;58.41
72903;BME280;61047;43.282;28.014;2024-02-21T01:51:23;99670.34;;;7.69;58.45
72903;BME280;61047;43.282;28.014;2024-02-21T01:53:49;99672.25;;;7.67;58.26
72903;BME280;61047;43.282;28.014;2024-02-21T01:56:16;99672.34;;;7.65;58.32
72903;BME280;61047;43.282;28.014;2024-02-21T01:58:42;99678.34;;;7.67;58.02
72903;BME280;61047;43.282;28.014;2024-02-21T02:01:07;99673.81;;;7.70;58.17
72903;BME280;61047;43.282;28.014;2024-02-21T02:03:33;99672.00;;;7.70;58.07
72903;BME280;61047;43.282;28.014;2024-02-21T02:05:59;99677.03;;;7.73;58.33
72903;BME280;61047;43.282;28.014;2024-02-21T02:08:25;99674.31;;;7.75;58.51
72903;BME280;61047;43.282;28.014;2024-02-21T02:10:51;99662.88;;;7.74;59.01
72903;BME280;61047;43.282;28.014;2024-02-21T02:13:17;99671.66;;;7.75;58.60
72903;BME280;61047;43.282;28.014;2024-02-21T02:15:44;99677.03;;;7.73;58.99
72903;BME280;61047;43.282;28.014;2024-02-21T02:18:14;99673.34;;;7.76;58.60
72903;BME280;61047;43.282;28.014;2024-02-21T02:20:40;99672.25;;;7.78;58.65
72903;BME280;61047;43.282;28.014;2024-02-21T02:23:12;99678.25;;;7.80;59.07
72903;BME280;61047;43.282;28.014;2024-02-21T02:25:39;99671.91;;;7.83;59.13
72903;BME280;61047;43.282;28.014;2024-02-21T02:28:06;99670.47;;;7.79;58.64
72903;BME280;61047;43.282;28.014;2024-02-21T02:30:35;99671.09;;;7.82;58.51
72903;BME280;61047;43.282;28.014;2024-02-21T02:33:04;99668.88;;;7.76;58.65
72903;BME280;61047;43.282;28.014;2024-02-21T02:35:30;99682.44;;;7.72;58.40
72903;BME280;61047;43.282;28.014;2024-02-21T02:37:56;99675.47;;;7.71;58.11
72903;BME280;61047;43.282;28.014;2024-02-21T02:40:22;99684.22;;;7.71;58.35
72903;BME280;61047;43.282;28.014;2024-02-21T02:42:48;99676.31;;;7.71;58.27
72903;BME280;61047;43.282;28.014;2024-02-21T02:45:15;99670.94;;;7.73;58.10
72903;BME280;61047;43.282;28.014;2024-02-21T02:47:40;99667.31;;;7.74;58.28
72903;BME280;61047;43.282;28.014;2024-02-21T02:50:06;99674.31;;;7.75;58.13
72903;BME280;61047;43.282;28.014;2024-02-21T02:52:32;99669.88;;;7.75;58.13
72903;BME280;61047;43.282;28.014;2024-02-21T02:54:58;99670.78;;;7.74;58.11
72903;BME280;61047;43.282;28.014;2024-02-21T02:57:23;99678.72;;;7.74;57.77
72903;BME280;61047;43.282;28.014;2024-02-21T02:59:49;99677.78;;;7.75;57.98
72903;BME280;61047;43.282;28.014;2024-02-21T03:02:15;99673.34;;;7.76;57.76
72903;BME280;61047;43.282;28.014;2024-02-21T03:04:40;99680.41;;;7.75;57.86
72903;BME280;61047;43.282;28.014;2024-02-21T03:07:06;99682.22;;;7.75;57.71
72903;BME280;61047;43.282;28.014;2024-02-21T03:09:32;99675.00;;;7.77;58.62
72903;BME280;61047;43.282;28.014;2024-02-21T03:11:57;99679.81;;;7.83;58.95
72903;BME280;61047;43.282;28.014;2024-02-21T03:14:30;99670.34;;;7.80;59.01
72903;BME280;61047;43.282;28.014;2024-02-21T03:16:56;99678.13;;;7.82;58.87
72903;BME280;61047;43.282;28.014;2024-02-21T03:19:22;99669.50;;;7.80;59.35
72903;BME280;61047;43.282;28.014;2024-02-21T03:21:48;99669.63;;;7.78;59.39
72903;BME280;61047;43.282;28.014;2024-02-21T03:24:15;99676.81;;;7.76;58.97
72903;BME280;61047;43.282;28.014;2024-02-21T03:26:41;99682.91;;;7.77;59.13
72903;BME280;61047;43.282;28.014;2024-02-21T03:29:06;99677.63;;;7.77;59.26
72903;BME280;61047;43.282;28.014;2024-02-21T03:31:32;99685.56;;;7.77;59.11
72903;BME280;61047;43.282;28.014;2024-02-21T03:33:58;99682.56;;;7.70;58.67
72903;BME280;61047;43.282;28.014;2024-02-21T03:36:23;99677.28;;;7.70;58.16
72903;BME280;61047;43.282;28.014;2024-02-21T03:38:49;99680.03;;;7.68;58.14
72903;BME280;61047;43.282;28.014;2024-02-21T03:41:15;99687.00;;;7.70;58.09
72903;BME280;61047;43.282;28.014;2024-02-21T03:43:43;99686.16;;;7.69;58.30
72903;BME280;61047;43.282;28.014;2024-02-21T03:46:09;99680.88;;;7.69;58.43
72903;BME280;61047;43.282;28.014;2024-02-21T03:48:35;99680.88;;;7.69;58.30
72903;BME280;61047;43.282;28.014;2024-02-21T03:51:01;99675.63;;;7.69;58.41
72903;BME280;61047;43.282;28.014;2024-02-21T03:53:26;99673.44;;;7.74;58.95
72903;BME280;61047;43.282;28.014;2024-02-21T03:55:52;99673.44;;;7.74;58.86
72903;BME280;61047;43.282;28.014;2024-02-21T03:58:18;99670.78;;;7.74;59.07
72903;BME280;61047;43.282;28.014;2024-02-21T04:00:44;99676.56;;;7.68;59.30
72903;BME280;61047;43.282;28.014;2024-02-21T04:03:09;99677.38;;;7.68;59.05
72903;BME280;61047;43.282;28.014;2024-02-21T04:05:35;99673.91;;;7.68;59.20
72903;BME280;61047;43.282;28.014;2024-02-21T04:08:03;99674.53;;;7.72;59.09
72903;BME280;61047;43.282;28.014;2024-02-21T04:10:30;99666.38;;;7.75;59.10
72903;BME280;61047;43.282;28.014;2024-02-21T04:12:55;99673.44;;;7.74;59.10
72903;BME280;61047;43.282;28.014;2024-02-21T04:15:21;99673.56;;;7.73;59.13
72903;BME280;61047;43.282;28.014;2024-02-21T04:17:47;99678.59;;;7.64;58.60
72903;BME280;61047;43.282;28.014;2024-02-21T04:20:14;99678.19;;;7.58;58.64
72903;BME280;61047;43.282;28.014;2024-02-21T04:22:40;99678.44;;;7.55;58.53
72903;BME280;61047;43.282;28.014;2024-02-21T04:25:06;99682.88;;;7.54;58.56
72903;BME280;61047;43.282;28.014;2024-02-21T04:27:32;99686.34;;;7.55;58.57
72903;BME280;61047;43.282;28.014;2024-02-21T04:29:57;99686.44;;;7.53;58.37
72903;BME280;61047;43.282;28.014;2024-02-21T04:32:23;99683.81;;;7.53;58.45
72903;BME280;61047;43.282;28.014;2024-02-21T04:34:49;99670.53;;;7.55;58.38
72903;BME280;61047;43.282;28.014;2024-02-21T04:37:14;99674.13;;;7.54;58.31
72903;BME280;61047;43.282;28.014;2024-02-21T04:39:40;99666.81;;;7.57;58.48
72903;BME280;61047;43.282;28.014;2024-02-21T04:42:06;99669.56;;;7.56;59.49
72903;BME280;61047;43.282;28.014;2024-02-21T04:44:31;99678.44;;;7.55;59.56
72903;BME280;61047;43.282;28.014;2024-02-21T04:46:57;99676.78;;;7.54;59.52
72903;BME280;61047;43.282;28.014;2024-02-21T04:49:22;99677.09;;;7.49;58.85
72903;BME280;61047;43.282;28.014;2024-02-21T04:51:48;99677.09;;;7.49;58.72
72903;BME280;61047;43.282;28.014;2024-02-21T04:54:14;99689.44;;;7.49;58.54
72903;BME280;61047;43.282;28.014;2024-02-21T04:56:39;99681.41;;;7.50;58.32
72903;BME280;61047;43.282;28.014;2024-02-21T04:59:05;99685.75;;;7.51;58.37
72903;BME280;61047;43.282;28.014;2024-02-21T05:01:30;99682.25;;;7.51;58.35
72903;BME280;61047;43.282;28.014;2024-02-21T05:03:56;99689.22;;;7.52;58.32
72903;BME280;61047;43.282;28.014;2024-02-21T05:06:22;99688.25;;;7.53;58.05
72903;BME280;61047;43.282;28.014;2024-02-21T05:08:47;99690.88;;;7.53;59.25
72903;BME280;61047;43.282;28.014;2024-02-21T05:11:13;99688.97;;;7.55;59.32
72903;BME280;61047;43.282;28.014;2024-02-21T05:13:42;99680.50;;;7.62;59.36
72903;BME280;61047;43.282;28.014;2024-02-21T05:16:09;99690.06;;;7.63;58.93
72903;BME280;61047;43.282;28.014;2024-02-21T05:18:34;99691.44;;;7.69;58.81
72903;BME280;61047;43.282;28.014;2024-02-21T05:21:01;99694.06;;;7.69;58.87
72903;BME280;61047;43.282;28.014;2024-02-21T05:23:26;99705.72;;;7.78;58.93
72903;BME280;61047;43.282;28.014;2024-02-21T05:25:52;99706.53;;;7.78;58.47
72903;BME280;61047;43.282;28.014;2024-02-21T05:28:18;99710.63;;;7.82;58.85
72903;BME280;61047;43.282;28.014;2024-02-21T05:30:43;99706.78;;;7.86;58.54
72903;BME280;61047;43.282;28.014;2024-02-21T05:33:09;99713.88;;;7.86;58.42
72903;BME280;61047;43.282;28.014;2024-02-21T05:35:34;99717.34;;;7.86;57.71
72903;BME280;61047;43.282;28.014;2024-02-21T05:38:00;99717.84;;;7.92;57.77
72903;BME280;61047;43.282;28.014;2024-02-21T05:40:26;99725.41;;;7.96;57.57
72903;BME280;61047;43.282;28.014;2024-02-21T05:42:52;99720.97;;;7.97;57.58
72903;BME280;61047;43.282;28.014;2024-02-21T05:45:18;99728.63;;;8.00;57.36
72903;BME280;61047;43.282;28.014;2024-02-21T05:47:43;99731.28;;;8.00;57.31
72903;BME280;61047;43.282;28.014;2024-02-21T05:50:09;99727.81;;;7.99;57.34
72903;BME280;61047;43.282;28.014;2024-02-21T05:52:35;99724.19;;;8.00;58.05
72903;BME280;61047;43.282;28.014;2024-02-21T05:55:01;99734.75;;;8.00;58.26
72903;BME280;61047;43.282;28.014;2024-02-21T05:57:26;99736.22;;;8.04;58.50
72903;BME280;61047;43.282;28.014;2024-02-21T05:59:52;99728.19;;;8.06;58.00
72903;BME280;61047;43.282;28.014;2024-02-21T06:02:18;99732.25;;;8.10;57.90
72903;BME280;61047;43.282;28.014;2024-02-21T06:04:43;99736.94;;;8.06;57.64
72903;BME280;61047;43.282;28.014;2024-02-21T06:07:09;99742.81;;;8.10;58.17
72903;BME280;61047;43.282;28.014;2024-02-21T06:09:35;99748.81;;;8.12;57.92
72903;BME280;61047;43.282;28.014;2024-02-21T06:12:01;99751.13;;;8.17;57.69
72903;BME280;61047;43.282;28.014;2024-02-21T06:14:26;99750.28;;;8.16;58.07
72903;BME280;61047;43.282;28.014;2024-02-21T06:16:52;99744.75;;;8.19;57.41
72903;BME280;61047;43.282;28.014;2024-02-21T06:19:18;99746.56;;;8.19;58.00
72903;BME280;61047;43.282;28.014;2024-02-21T06:21:43;99750.53;;;8.24;57.20
72903;BME280;61047;43.282;28.014;2024-02-21T06:24:09;99749.56;;;8.37;57.42
72903;BME280;61047;43.282;28.014;2024-02-21T06:26:34;99751.53;;;8.57;57.06
72903;BME280;61047;43.282;28.014;2024-02-21T06:29:00;99741.22;;;8.76;56.87
72903;BME280;61047;43.282;28.014;2024-02-21T06:31:27;99741.88;;;9.01;56.51
72903;BME280;61047;43.282;28.014;2024-02-21T06:33:52;99745.31;;;9.24;56.01
72903;BME280;61047;43.282;28.014;2024-02-21T06:36:18;99744.91;;;9.40;55.70
72903;BME280;61047;43.282;28.014;2024-02-21T06:38:44;99743.06;;;9.52;55.53
72903;BME280;61047;43.282;28.014;2024-02-21T06:41:18;99746.50;;;9.63;55.24
72903;BME280;61047;43.282;28.014;2024-02-21T06:43:47;99743.56;;;9.78;54.85
72903;BME280;61047;43.282;28.014;2024-02-21T06:46:22;99738.06;;;9.91;54.74
72903;BME280;61047;43.282;28.014;2024-02-21T06:48:48;99740.03;;;9.98;54.46
72903;BME280;61047;43.282;28.014;2024-02-21T06:51:14;99737.34;;;10.10;54.15
72903;BME280;61047;43.282;28.014;2024-02-21T06:53:39;99731.00;;;10.22;54.29
72903;BME280;61047;43.282;28.014;2024-02-21T06:56:05;99730.03;;;10.44;53.68
72903;BME280;61047;43.282;28.014;2024-02-21T06:58:31;99718.28;;;10.67;53.25
72903;BME280;61047;43.282;28.014;2024-02-21T07:00:57;99723.22;;;10.91;52.93
72903;BME280;61047;43.282;28.014;2024-02-21T07:03:22;99718.66;;;11.03;52.75
72903;BME280;61047;43.282;28.014;2024-02-21T07:05:49;99715.06;;;11.24;52.59
72903;BME280;61047;43.282;28.014;2024-02-21T07:08:15;99722.75;;;11.46;52.19
72903;BME280;61047;43.282;28.014;2024-02-21T07:10:41;99721.63;;;11.68;51.77
72903;BME280;61047;43.282;28.014;2024-02-21T07:13:07;99721.34;;;12.00;51.49
72903;BME280;61047;43.282;28.014;2024-02-21T07:15:33;99716.25;;;12.26;50.80
72903;BME280;61047;43.282;28.014;2024-02-21T07:17:59;99715.50;;;12.44;50.57
72903;BME280;61047;43.282;28.014;2024-02-21T07:20:25;99715.41;;;12.63;49.98
72903;BME280;61047;43.282;28.014;2024-02-21T07:22:51;99713.56;;;12.91;49.33
72903;BME280;61047;43.282;28.014;2024-02-21T07:25:17;99717.44;;;13.25;48.90
72903;BME280;61047;43.282;28.014;2024-02-21T07:27:43;99712.34;;;13.67;48.21
72903;BME280;61047;43.282;28.014;2024-02-21T07:30:09;99706.75;;;13.96;47.80
72903;BME280;61047;43.282;28.014;2024-02-21T07:32:34;99719.91;;;14.24;47.46
72903;BME280;61047;43.282;28.014;2024-02-21T07:35:00;99708.13;;;15.03;46.08
72903;BME280;61047;43.282;28.014;2024-02-21T07:37:25;99711.69;;;15.28;45.63
72903;BME280;61047;43.282;28.014;2024-02-21T07:39:51;99709.84;;;15.29;45.55
72903;BME280;61047;43.282;28.014;2024-02-21T07:42:17;99712.88;;;15.34;45.66
72903;BME280;61047;43.282;28.014;2024-02-21T07:44:42;99714.38;;;15.28;45.51
72903;BME280;61047;43.282;28.014;2024-02-21T07:47:08;99722.19;;;15.22;45.93
72903;BME280;61047;43.282;28.014;2024-02-21T07:49:40;99726.81;;;15.12;46.44
72903;BME280;61047;43.282;28.014;2024-02-21T07:52:06;99721.34;;;15.13;45.96
72903;BME280;61047;43.282;28.014;2024-02-21T07:54:31;99719.00;;;15.18;46.22
72903;BME280;61047;43.282;28.014;2024-02-21T07:56:57;99722.88;;;15.32;45.40
72903;BME280;61047;43.282;28.014;2024-02-21T07:59:22;99724.56;;;15.49;45.96
72903;BME280;61047;43.282;28.014;2024-02-21T08:01:48;99731.75;;;15.65;45.43
72903;BME280;61047;43.282;28.014;2024-02-21T08:04:13;99723.94;;;15.88;45.27
72903;BME280;61047;43.282;28.014;2024-02-21T08:06:39;99726.44;;;16.14;45.29
72903;BME280;61047;43.282;28.014;2024-02-21T08:09:05;99726.00;;;16.42;45.14
72903;BME280;61047;43.282;28.014;2024-02-21T08:11:31;99720.75;;;16.81;44.25
72903;BME280;61047;43.282;28.014;2024-02-21T08:13:56;99726.75;;;17.15;43.51
72903;BME280;61047;43.282;28.014;2024-02-21T08:16:24;99723.13;;;17.31;43.54
72903;BME280;61047;43.282;28.014;2024-02-21T08:18:51;99727.56;;;17.46;42.78
72903;BME280;61047;43.282;28.014;2024-02-21T08:21:16;99718.81;;;17.76;41.96
72903;BME280;61047;43.282;28.014;2024-02-21T08:23:42;99715.91;;;17.85;40.85
72903;BME280;61047;43.282;28.014;2024-02-21T08:26:08;99716.56;;;17.87;42.06
72903;BME280;61047;43.282;28.014;2024-02-21T08:28:34;99715.13;;;18.00;42.08
72903;BME280;61047;43.282;28.014;2024-02-21T08:31:00;99702.66;;;18.66;40.97
72903;BME280;61047;43.282;28.014;2024-02-21T08:33:26;99708.97;;;18.44;40.08
72903;BME280;61047;43.282;28.014;2024-02-21T08:35:52;99712.56;;;18.36;40.31
72903;BME280;61047;43.282;28.014;2024-02-21T08:38:18;99710.06;;;18.64;39.84
72903;BME280;61047;43.282;28.014;2024-02-21T08:40:44;99717.47;;;18.92;39.16
72903;BME280;61047;43.282;28.014;2024-02-21T08:43:09;99713.78;;;18.93;39.03
72903;BME280;61047;43.282;28.014;2024-02-21T08:45:35;99712.19;;;18.84;39.24
72903;BME280;61047;43.282;28.014;2024-02-21T08:48:00;99706.47;;;18.72;39.70
72903;BME280;61047;43.282;28.014;2024-02-21T08:50:26;99715.97;;;18.45;40.19
72903;BME280;61047;43.282;28.014;2024-02-21T08:52:52;99715.72;;;18.40;40.08
72903;BME280;61047;43.282;28.014;2024-02-21T08:55:18;99719.59;;;18.67;40.18
72903;BME280;61047;43.282;28.014;2024-02-21T08:57:44;99716.03;;;19.11;39.31
72903;BME280;61047;43.282;28.014;2024-02-21T09:00:09;99712.88;;;19.22;39.11
72903;BME280;61047;43.282;28.014;2024-02-21T09:02:36;99720.03;;;19.00;39.40
72903;BME280;61047;43.282;28.014;2024-02-21T09:05:03;99714.88;;;18.84;39.51
72903;BME280;61047;43.282;28.014;2024-02-21T09:07:30;99715.44;;;18.64;39.30
72903;BME280;61047;43.282;28.014;2024-02-21T09:09:56;99709.69;;;18.67;40.05
72903;BME280;61047;43.282;28.014;2024-02-21T09:12:21;99716.53;;;18.55;39.46
72903;BME280;61047;43.282;28.014;2024-02-21T09:14:47;99716.66;;;18.62;39.70
72903;BME280;61047;43.282;28.014;2024-02-21T09:17:16;99718.41;;;18.54;39.54
72903;BME280;61047;43.282;28.014;2024-02-21T09:19:42;99718.09;;;18.34;39.93
72903;BME280;61047;43.282;28.014;2024-02-21T09:22:08;99722.53;;;18.27;40.14
72903;BME280;61047;43.282;28.014;2024-02-21T09:24:33;99723.56;;;18.26;40.19
72903;BME280;61047;43.282;28.014;2024-02-21T09:26:59;99722.25;;;18.22;40.34
72903;BME280;61047;43.282;28.014;2024-02-21T09:29:25;99722.34;;;18.58;39.63
72903;BME280;61047;43.282;28.014;2024-02-21T09:31:51;99720.06;;;18.55;39.13
72903;BME280;61047;43.282;28.014;2024-02-21T09:34:17;99709.69;;;18.97;39.29
72903;BME280;61047;43.282;28.014;2024-02-21T09:36:43;99705.16;;;19.55;38.07
72903;BME280;61047;43.282;28.014;2024-02-21T09:39:09;99713.78;;;21.59;35.39
72903;BME280;61047;43.282;28.014;2024-02-21T09:41:41;99702.25;;;22.70;32.82
72903;BME280;61047;43.282;28.014;2024-02-21T09:44:10;99700.78;;;22.81;32.82
72903;BME280;61047;43.282;28.014;2024-02-21T09:46:55;99706.69;;;22.18;33.08
72903;BME280;61047;43.282;28.014;2024-02-21T09:49:32;99704.44;;;22.15;33.90
72903;BME280;61047;43.282;28.014;2024-02-21T09:52:01;99708.38;;;21.79;33.62
72903;BME280;61047;43.282;28.014;2024-02-21T09:54:32;99706.00;;;21.23;33.86
72903;BME280;61047;43.282;28.014;2024-02-21T09:56:59;99700.03;;;20.80;34.60
72903;BME280;61047;43.282;28.014;2024-02-21T09:59:24;99699.59;;;20.41;35.10
72903;BME280;61047;43.282;28.014;2024-02-21T10:01:50;99705.22;;;20.11;35.45
72903;BME280;61047;43.282;28.014;2024-02-21T10:04:17;99706.88;;;19.84;36.59
72903;BME280;61047;43.282;28.014;2024-02-21T10:06:44;99697.84;;;19.92;36.91
72903;BME280;61047;43.282;28.014;2024-02-21T10:09:19;99699.00;;;19.83;36.70
72903;BME280;61047;43.282;28.014;2024-02-21T10:11:45;99691.13;;;19.60;36.76
72903;BME280;61047;43.282;28.014;2024-02-21T10:14:12;99690.59;;;19.28;37.73
72903;BME280;61047;43.282;28.014;2024-02-21T10:16:37;99697.16;;;19.04;37.77
72903;BME280;61047;43.282;28.014;2024-02-21T10:19:03;99690.81;;;18.90;38.16
72903;BME280;61047;43.282;28.014;2024-02-21T10:21:29;99687.59;;;18.80;37.92
72903;BME280;61047;43.282;28.014;2024-02-21T10:23:59;99689.16;;;18.59;39.00
72903;BME280;61047;43.282;28.014;2024-02-21T10:26:24;99685.75;;;18.36;38.38
72903;BME280;61047;43.282;28.014;2024-02-21T10:28:50;99693.41;;;18.24;39.01
72903;BME280;61047;43.282;28.014;2024-02-21T10:31:23;99686.84;;;18.27;38.60
72903;BME280;61047;43.282;28.014;2024-02-21T10:33:56;99681.78;;;18.17;39.04
72903;BME280;61047;43.282;28.014;2024-02-21T10:36:22;99677.31;;;18.09;38.91
72903;BME280;61047;43.282;28.014;2024-02-21T10:38:48;99669.66;;;18.21;39.25
72903;BME280;61047;43.282;28.014;2024-02-21T10:41:14;99669.84;;;18.34;38.81
72903;BME280;61047;43.282;28.014;2024-02-21T10:43:42;99659.91;;;18.65;37.92
72903;BME280;61047;43.282;28.014;2024-02-21T10:46:09;99659.88;;;18.94;37.87
72903;BME280;61047;43.282;28.014;2024-02-21T10:48:42;99654.47;;;19.52;37.83
72903;BME280;61047;43.282;28.014;2024-02-21T10:54:00;99647.28;;;19.81;36.67
72903;BME280;61047;43.282;28.014;2024-02-21T10:56:28;99656.66;;;19.20;37.30
72903;BME280;61047;43.282;28.014;2024-02-21T10:58:54;99659.38;;;18.69;37.67
72903;BME280;61047;43.282;28.014;2024-02-21T11:01:22;99659.13;;;18.20;38.83
72903;BME280;61047;43.282;28.014;2024-02-21T11:03:49;99655.94;;;17.86;39.44
72903;BME280;61047;43.282;28.014;2024-02-21T11:06:15;99661.31;;;17.40;40.07
72903;BME280;61047;43.282;28.014;2024-02-21T11:08:41;99661.16;;;17.19;40.20
72903;BME280;61047;43.282;28.014;2024-02-21T11:11:07;99660.47;;;16.94;41.28
72903;BME280;61047;43.282;28.014;2024-02-21T11:13:35;99655.03;;;16.71;41.23
72903;BME280;61047;43.282;28.014;2024-02-21T11:16:08;99651.25;;;16.57;41.77
72903;BME280;61047;43.282;28.014;2024-02-21T11:18:35;99653.34;;;16.38;41.62
72903;BME280;61047;43.282;28.014;2024-02-21T11:21:01;99642.00;;;16.28;42.11
72903;BME280;61047;43.282;28.014;2024-02-21T11:23:26;99645.34;;;16.30;42.27
72903;BME280;61047;43.282;28.014;2024-02-21T11:25:52;99649.91;;;16.13;42.37
72903;BME280;61047;43.282;28.014;2024-02-21T11:28:29;99651.41;;;16.16;42.61
72903;BME280;61047;43.282;28.014;2024-02-21T11:31:04;99643.41;;;16.08;42.90
72903;BME280;61047;43.282;28.014;2024-02-21T11:33:29;99639.09;;;16.07;42.87
72903;BME280;61047;43.282;28.014;2024-02-21T11:35:55;99629.69;;;16.19;43.05
72903;BME280;61047;43.282;28.014;2024-02-21T11:38:22;99624.84;;;16.23;41.96
72903;BME280;61047;43.282;28.014;2024-02-21T11:40:48;99636.13;;;16.41;42.46
72903;BME280;61047;43.282;28.014;2024-02-21T11:43:14;99626.91;;;16.44;42.31
72903;BME280;61047;43.282;28.014;2024-02-21T11:45:40;99622.00;;;16.63;41.96
72903;BME280;61047;43.282;28.014;2024-02-21T11:48:06;99621.94;;;16.80;41.15
72903;BME280;61047;43.282;28.014;2024-02-21T11:50:32;99619.03;;;16.90;41.31
72903;BME280;61047;43.282;28.014;2024-02-21T11:52:58;99614.38;;;16.83;41.51
72903;BME280;61047;43.282;28.014;2024-02-21T11:55:23;99615.56;;;16.81;41.21
72903;BME280;61047;43.282;28.014;2024-02-21T11:57:49;99619.84;;;16.90;41.92
72903;BME280;61047;43.282;28.014;2024-02-21T12:00:15;99610.81;;;16.91;41.11
72903;BME280;61047;43.282;28.014;2024-02-21T12:02:42;99612.59;;;16.99;41.27
72903;BME280;61047;43.282;28.014;2024-02-21T12:05:08;99605.28;;;16.93;42.22
72903;BME280;61047;43.282;28.014;2024-02-21T12:07:33;99605.41;;;16.99;41.67
72903;BME280;61047;43.282;28.014;2024-02-21T12:10:01;99601.19;;;16.82;41.17
72903;BME280;61047;43.282;28.014;2024-02-21T12:12:28;99602.00;;;16.82;42.09
72903;BME280;61047;43.282;28.014;2024-02-21T12:14:57;99599.69;;;16.79;42.09
72903;BME280;61047;43.282;28.014;2024-02-21T12:17:23;99603.50;;;16.85;41.59
72903;BME280;61047;43.282;28.014;2024-02-21T12:19:50;99606.19;;;16.85;42.06
72903;BME280;61047;43.282;28.014;2024-02-21T12:22:16;99608.66;;;16.87;41.88
72903;BME280;61047;43.282;28.014;2024-02-21T12:24:43;99606.53;;;16.82;42.09
72903;BME280;61047;43.282;28.014;2024-02-21T12:27:13;99599.53;;;16.73;41.97
72903;BME280;61047;43.282;28.014;2024-02-21T12:29:38;99595.25;;;16.63;42.01
72903;BME280;61047;43.282;28.014;2024-02-21T12:32:04;99597.81;;;16.49;42.37
72903;BME280;61047;43.282;28.014;2024-02-21T12:34:30;99594.06;;;16.35;42.62
72903;BME280;61047;43.282;28.014;2024-02-21T12:36:58;99597.13;;;16.15;42.83
72903;BME280;61047;43.282;28.014;2024-02-21T12:39:24;99599.50;;;16.02;42.86
72903;BME280;61047;43.282;28.014;2024-02-21T12:41:50;99600.22;;;15.80;43.74
72903;BME280;61047;43.282;28.014;2024-02-21T12:44:15;99603.22;;;15.68;44.16
72903;BME280;61047;43.282;28.014;2024-02-21T12:46:43;99599.59;;;15.69;44.11
72903;BME280;61047;43.282;28.014;2024-02-21T12:49:10;99596.72;;;15.63;44.33
72903;BME280;61047;43.282;28.014;2024-02-21T12:51:35;99595.91;;;15.46;43.99
72903;BME280;61047;43.282;28.014;2024-02-21T12:54:01;99592.06;;;15.40;44.18